Time;durP1;ratioP1;P1;durP2;ratioP2;P2;SDS_P1;SDS_P2;PMS_P1;PMS_P2;Temp;Humidity;BMP_temperature;BMP_pressure;BME280_temperature;BME280_humidity;BME280_pressure;Samples;Min_cycle;Max_cycle;Signal;HPM_P1;HPM_P2
2022/05/25 00:01:39;;;;;;;2.33;1.13;;;;;;;;;;5045052;28;21863;-76
2022/05/25 00:04:07;;;;;;;2.03;1.33;;;;;;;;;;5042452;28;20705;-77
2022/05/25 00:06:34;;;;;;;3.17;1.27;;;;;;;;;;5046585;28;20196;-77
2022/05/25 00:09:02;;;;;;;4.77;1.13;;;;;;;;;;5047069;28;20207;-78
2022/05/25 00:11:29;;;;;;;1.90;1.20;;;;;;;;;;5044330;28;20307;-77
2022/05/25 00:13:58;;;;;;;1.53;1.17;;;;;;;;;;5040700;28;20277;-79
2022/05/25 00:16:25;;;;;;;7.70;1.10;;;;;;;;;;5044049;28;20245;-78
2022/05/25 00:21:37;;;;;;;3.07;1.20;;;;;;;;;;5041357;28;20219;-78
2022/05/25 00:24:05;;;;;;;3.77;1.70;;;;;;;;;;5041409;28;20215;-78
2022/05/25 00:26:33;;;;;;;4.77;1.27;;;;;;;;;;5044519;28;20273;-77
2022/05/25 00:29:02;;;;;;;1.17;1.00;;;;;;;;;;5042358;28;20609;-78
2022/05/25 00:31:30;;;;;;;4.27;1.30;;;;;;;;;;5042831;28;20683;-77
2022/05/25 00:33:58;;;;;;;2.20;1.00;;;;;;;;;;5039727;28;20234;-77
2022/05/25 00:36:25;;;;;;;1.33;1.03;;;;;;;;;;5046621;28;20206;-78
2022/05/25 00:38:52;;;;;;;1.30;1.00;;;;;;;;;;5044446;28;20213;-78
2022/05/25 00:41:23;;;;;;;4.17;1.30;;;;;;;;;;5042866;28;20220;-78
2022/05/25 00:43:50;;;;;;;3.27;1.10;;;;;;;;;;5041319;28;20310;-77
2022/05/25 00:46:19;;;;;;;4.20;1.40;;;;;;;;;;5044487;28;20208;-78
2022/05/25 00:48:48;;;;;;;4.53;1.30;;;;;;;;;;5043805;28;20200;-77
2022/05/25 00:51:21;;;;;;;5.37;1.13;;;;;;;;;;5047837;28;21312;-77
2022/05/25 00:53:50;;;;;;;3.23;1.40;;;;;;;;;;5045136;28;20207;-78
2022/05/25 00:56:20;;;;;;;2.37;1.13;;;;;;;;;;5045288;28;20757;-77
2022/05/25 00:58:54;;;;;;;4.27;1.17;;;;;;;;;;5047182;28;20229;-76
2022/05/25 01:01:22;;;;;;;2.80;0.93;;;;;;;;;;5046517;28;20227;-77
2022/05/25 01:03:49;;;;;;;4.83;1.13;;;;;;;;;;5039690;28;20694;-78
2022/05/25 01:06:25;;;;;;;2.63;1.20;;;;;;;;;;5040958;28;20207;-77
2022/05/25 01:08:57;;;;;;;3.17;1.00;;;;;;;;;;5046065;28;20298;-78
2022/05/25 01:11:31;;;;;;;3.67;1.20;;;;;;;;;;5044411;28;20231;-77
2022/05/25 01:14:04;;;;;;;5.87;1.40;;;;;;;;;;5045462;28;20203;-78
2022/05/25 01:16:38;;;;;;;2.70;1.23;;;;;;;;;;5045539;28;20414;-77
2022/05/25 01:19:11;;;;;;;2.03;1.23;;;;;;;;;;5046676;28;20257;-77
2022/05/25 01:21:43;;;;;;;2.77;1.30;;;;;;;;;;5042493;28;20790;-77
2022/05/25 01:24:14;;;;;;;2.60;1.10;;;;;;;;;;5045392;28;20239;-78
2022/05/25 01:27:00;;;;;;;4.27;1.33;;;;;;;;;;5046701;28;20203;-78
2022/05/25 01:29:45;;;;;;;2.47;1.40;;;;;;;;;;5045033;28;20269;-78
2022/05/25 01:32:16;;;;;;;5.70;1.73;;;;;;;;;;5044563;28;20242;-77
2022/05/25 01:34:46;;;;;;;3.77;1.60;;;;;;;;;;5040620;28;20207;-77
2022/05/25 01:37:17;;;;;;;5.43;2.10;;;;;;;;;;5044994;28;20290;-76
2022/05/25 01:39:48;;;;;;;5.27;1.70;;;;;;;;;;5040113;28;20203;-77
2022/05/25 01:42:18;;;;;;;12.80;2.00;;;;;;;;;;5041665;28;20229;-78
2022/05/25 01:44:48;;;;;;;5.23;2.83;;;;;;;;;;5041858;28;20282;-77
2022/05/25 01:47:16;;;;;;;1.80;1.40;;;;;;;;;;5039391;28;20207;-78
2022/05/25 01:49:45;;;;;;;1.43;1.17;;;;;;;;;;5041225;28;20206;-77
2022/05/25 01:52:15;;;;;;;10.30;1.40;;;;;;;;;;5046556;28;20230;-78
2022/05/25 01:54:48;;;;;;;3.33;1.47;;;;;;;;;;5040437;28;20575;-77
2022/05/25 01:57:16;;;;;;;3.27;1.50;;;;;;;;;;5042628;28;20217;-78
2022/05/25 01:59:43;;;;;;;3.77;1.67;;;;;;;;;;5045497;28;20499;-76
2022/05/25 02:04:58;;;;;;;3.70;1.57;;;;;;;;;;5044210;28;20639;-76
2022/05/25 02:07:32;;;;;;;3.03;1.60;;;;;;;;;;5046191;28;20199;-77
2022/05/25 02:10:23;;;;;;;3.37;1.80;;;;;;;;;;5043715;28;20676;-79
2022/05/25 02:13:05;;;;;;;6.33;1.70;;;;;;;;;;5043705;28;20329;-78
2022/05/25 02:15:36;;;;;;;6.10;1.73;;;;;;;;;;5044654;28;20371;-77
2022/05/25 02:18:06;;;;;;;2.47;1.60;;;;;;;;;;5048942;28;20200;-77
2022/05/25 02:20:39;;;;;;;3.03;1.67;;;;;;;;;;5046624;28;20205;-76
2022/05/25 02:23:09;;;;;;;2.27;1.57;;;;;;;;;;5047221;28;20889;-77
2022/05/25 02:25:39;;;;;;;3.87;1.53;;;;;;;;;;5046866;28;20235;-77
2022/05/25 02:28:09;;;;;;;2.07;1.53;;;;;;;;;;5048398;28;20234;-78
2022/05/25 02:30:38;;;;;;;4.07;1.40;;;;;;;;;;5047803;28;20682;-77
2022/05/25 02:33:09;;;;;;;5.00;1.70;;;;;;;;;;5047174;28;20673;-77
2022/05/25 02:35:40;;;;;;;4.20;1.37;;;;;;;;;;5048486;28;20199;-78
2022/05/25 02:38:08;;;;;;;4.87;1.37;;;;;;;;;;5048218;28;20199;-77
2022/05/25 02:40:36;;;;;;;2.73;1.47;;;;;;;;;;5046518;28;20695;-77
2022/05/25 02:43:04;;;;;;;6.57;1.50;;;;;;;;;;5048111;28;20223;-77
2022/05/25 02:45:31;;;;;;;3.63;1.60;;;;;;;;;;5047007;28;20290;-77
2022/05/25 02:47:58;;;;;;;4.27;1.50;;;;;;;;;;5049613;28;20578;-78
2022/05/25 02:50:26;;;;;;;1.57;1.17;;;;;;;;;;5046883;28;20219;-77
2022/05/25 02:52:54;;;;;;;3.27;1.67;;;;;;;;;;5043005;28;20700;-78
2022/05/25 02:55:22;;;;;;;3.27;1.70;;;;;;;;;;5045417;28;20784;-77
2022/05/25 02:57:49;;;;;;;6.27;1.40;;;;;;;;;;5043268;28;20254;-77
2022/05/25 03:00:17;;;;;;;2.47;1.53;;;;;;;;;;5042175;28;20310;-77
2022/05/25 03:02:44;;;;;;;3.67;1.80;;;;;;;;;;5048800;28;20322;-77
2022/05/25 03:05:12;;;;;;;3.50;1.53;;;;;;;;;;5047829;28;20215;-78
2022/05/25 03:07:40;;;;;;;1.70;1.47;;;;;;;;;;5048952;28;20201;-77
2022/05/25 03:10:09;;;;;;;1.87;1.30;;;;;;;;;;5047803;28;20621;-76
2022/05/25 03:12:36;;;;;;;1.97;1.50;;;;;;;;;;5044973;28;20306;-78
2022/05/25 03:15:03;;;;;;;2.00;1.40;;;;;;;;;;5045178;28;20290;-78
2022/05/25 03:17:31;;;;;;;3.73;1.70;;;;;;;;;;5044329;28;20213;-78
2022/05/25 03:19:59;;;;;;;4.87;1.50;;;;;;;;;;5044548;28;20209;-78
2022/05/25 03:22:26;;;;;;;2.10;1.43;;;;;;;;;;5044971;28;20306;-78
2022/05/25 03:24:54;;;;;;;4.27;1.80;;;;;;;;;;5046946;28;20693;-76
2022/05/25 03:27:22;;;;;;;2.20;1.43;;;;;;;;;;5042965;28;20302;-77
2022/05/25 03:29:50;;;;;;;2.50;1.47;;;;;;;;;;5049612;28;20280;-77
2022/05/25 03:32:17;;;;;;;4.73;1.87;;;;;;;;;;5048053;28;20701;-77
2022/05/25 03:34:45;;;;;;;5.10;1.63;;;;;;;;;;5048417;28;20203;-77
2022/05/25 03:37:12;;;;;;;4.47;1.77;;;;;;;;;;5049442;28;20663;-77
2022/05/25 03:39:39;;;;;;;2.30;1.47;;;;;;;;;;5047828;28;20575;-77
2022/05/25 03:42:08;;;;;;;3.17;1.30;;;;;;;;;;5046171;28;20222;-77
2022/05/25 03:44:37;;;;;;;1.97;1.50;;;;;;;;;;5046367;28;20219;-77
2022/05/25 03:47:04;;;;;;;4.47;1.57;;;;;;;;;;5043977;28;20703;-78
2022/05/25 03:49:32;;;;;;;4.37;1.50;;;;;;;;;;5048664;28;20217;-78
2022/05/25 03:51:59;;;;;;;2.67;1.70;;;;;;;;;;5048498;28;20631;-78
2022/05/25 03:54:26;;;;;;;6.23;1.53;;;;;;;;;;5046109;28;20661;-76
2022/05/25 03:56:53;;;;;;;2.87;1.70;;;;;;;;;;5048600;28;20272;-77
2022/05/25 03:59:20;;;;;;;2.00;1.50;;;;;;;;;;5049309;28;20320;-77
2022/05/25 04:01:49;;;;;;;2.17;1.47;;;;;;;;;;5047129;28;20229;-76
2022/05/25 04:04:16;;;;;;;4.30;1.80;;;;;;;;;;5046423;28;20702;-76
2022/05/25 04:06:43;;;;;;;7.27;2.00;;;;;;;;;;5045918;28;20669;-78
2022/05/25 04:09:11;;;;;;;6.07;2.30;;;;;;;;;;5045793;28;20231;-76
2022/05/25 04:11:38;;;;;;;5.43;2.50;;;;;;;;;;5045441;28;20223;-76
2022/05/25 04:14:05;;;;;;;7.43;2.23;;;;;;;;;;5046787;28;20205;-77
2022/05/25 04:16:33;;;;;;;8.47;2.27;;;;;;;;;;5046690;28;20235;-77
2022/05/25 04:19:01;;;;;;;3.33;2.20;;;;;;;;;;5046413;28;20249;-77
2022/05/25 04:21:29;;;;;;;3.83;2.27;;;;;;;;;;5045605;28;20734;-77
2022/05/25 04:23:56;;;;;;;4.70;2.50;;;;;;;;;;5041657;28;20215;-77
2022/05/25 04:26:23;;;;;;;7.50;3.07;;;;;;;;;;5045930;28;20701;-77
2022/05/25 04:28:50;;;;;;;5.13;3.03;;;;;;;;;;5043777;28;20294;-77
2022/05/25 04:31:17;;;;;;;8.07;2.47;;;;;;;;;;5045030;28;20223;-77
2022/05/25 04:33:45;;;;;;;5.87;2.60;;;;;;;;;;5045661;28;20191;-78
2022/05/25 04:36:13;;;;;;;6.37;3.00;;;;;;;;;;5041576;28;20301;-78
2022/05/25 04:38:40;;;;;;;7.23;2.90;;;;;;;;;;5043208;28;20400;-77
2022/05/25 04:41:08;;;;;;;5.23;3.00;;;;;;;;;;5042865;28;20302;-77
2022/05/25 04:43:35;;;;;;;7.97;2.70;;;;;;;;;;5043439;28;20225;-78
2022/05/25 04:46:07;;;;;;;5.00;2.63;;;;;;;;;;5041827;28;20207;-78
2022/05/25 04:48:34;;;;;;;4.47;2.60;;;;;;;;;;5041643;28;20330;-77
2022/05/25 04:51:01;;;;;;;5.10;2.40;;;;;;;;;;5039412;28;20204;-78
2022/05/25 04:53:30;;;;;;;7.80;2.60;;;;;;;;;;5043696;28;20227;-77
2022/05/25 04:58:43;;;;;;;4.67;2.40;;;;;;;;;;5042309;28;20213;-78
2022/05/25 05:01:11;;;;;;;5.30;2.43;;;;;;;;;;5038767;28;20264;-78
2022/05/25 05:03:39;;;;;;;3.73;2.37;;;;;;;;;;5042659;28;20306;-78
2022/05/25 05:06:07;;;;;;;5.07;2.77;;;;;;;;;;5042779;28;20261;-78
2022/05/25 05:08:36;;;;;;;3.47;2.50;;;;;;;;;;5040848;28;20217;-77
2022/05/25 05:11:07;;;;;;;3.40;2.13;;;;;;;;;;5040855;28;20529;-78
2022/05/25 05:13:34;;;;;;;2.63;1.90;;;;;;;;;;5043360;28;20191;-78
2022/05/25 05:16:05;;;;;;;3.40;2.07;;;;;;;;;;5045498;28;20365;-77
2022/05/25 05:18:32;;;;;;;5.87;1.97;;;;;;;;;;5044309;28;20571;-78
2022/05/25 05:20:59;;;;;;;4.20;1.70;;;;;;;;;;5046314;28;20199;-78
2022/05/25 05:23:26;;;;;;;3.30;1.77;;;;;;;;;;5041128;28;20302;-77
2022/05/25 05:25:55;;;;;;;3.00;1.70;;;;;;;;;;5046520;28;20207;-77
2022/05/25 05:28:23;;;;;;;4.20;1.50;;;;;;;;;;5046061;28;20214;-76
2022/05/25 05:30:51;;;;;;;3.10;1.50;;;;;;;;;;5047316;28;20203;-76
2022/05/25 05:33:19;;;;;;;8.07;2.07;;;;;;;;;;5044110;28;20283;-76
2022/05/25 05:35:47;;;;;;;2.97;2.07;;;;;;;;;;5043238;28;20214;-76
2022/05/25 05:38:17;;;;;;;1.93;1.17;;;;;;;;;;5041293;28;20294;-76
2022/05/25 05:40:44;;;;;;;1.70;1.30;;;;;;;;;;5044363;28;20305;-76
2022/05/25 05:43:13;;;;;;;4.17;1.47;;;;;;;;;;5040648;28;20255;-77
2022/05/25 05:45:41;;;;;;;1.63;1.20;;;;;;;;;;5051829;28;20205;-77
2022/05/25 05:48:10;;;;;;;3.37;1.20;;;;;;;;;;5043949;28;20205;-77
2022/05/25 05:50:40;;;;;;;2.60;1.40;;;;;;;;;;5039499;28;20242;-76
2022/05/25 05:53:09;;;;;;;2.50;1.27;;;;;;;;;;5044191;28;20211;-76
2022/05/25 05:55:36;;;;;;;2.33;1.40;;;;;;;;;;5046365;28;20213;-76
2022/05/25 05:58:04;;;;;;;4.10;1.20;;;;;;;;;;5042303;28;20206;-77
2022/05/25 06:00:33;;;;;;;4.83;1.30;;;;;;;;;;5045690;28;20665;-77
2022/05/25 06:03:01;;;;;;;3.67;1.67;;;;;;;;;;5046713;28;20297;-77
2022/05/25 06:05:29;;;;;;;1.97;1.50;;;;;;;;;;5046134;28;20223;-77
2022/05/25 06:07:56;;;;;;;7.53;1.50;;;;;;;;;;5048219;28;20209;-77
2022/05/25 06:10:23;;;;;;;4.87;1.40;;;;;;;;;;5045053;28;20294;-77
2022/05/25 06:12:50;;;;;;;3.43;1.70;;;;;;;;;;5045118;28;20309;-77
2022/05/25 06:20:49;;;;;;;3.13;1.03;;;;;;;;;;5047693;28;20640;-77
2022/05/25 06:23:16;;;;;;;1.63;1.17;;;;;;;;;;5046655;28;20210;-77
2022/05/25 06:25:43;;;;;;;6.73;1.40;;;;;;;;;;5044121;28;20758;-77
2022/05/25 06:28:11;;;;;;;5.33;1.53;;;;;;;;;;5043721;28;20286;-76
2022/05/25 06:30:38;;;;;;;5.57;1.53;;;;;;;;;;5042844;28;20235;-78
2022/05/25 06:33:08;;;;;;;2.33;1.53;;;;;;;;;;5044387;28;20254;-77
2022/05/25 06:35:35;;;;;;;4.37;1.60;;;;;;;;;;5049180;28;20669;-77
2022/05/25 06:38:03;;;;;;;1.73;1.47;;;;;;;;;;5047322;28;20209;-78
2022/05/25 06:40:30;;;;;;;4.67;1.67;;;;;;;;;;5044417;28;20227;-77
2022/05/25 06:42:58;;;;;;;4.73;2.00;;;;;;;;;;5046302;28;20308;-77
2022/05/25 06:45:25;;;;;;;3.73;1.83;;;;;;;;;;5045995;28;20230;-77
2022/05/25 06:47:52;;;;;;;3.90;1.60;;;;;;;;;;5042658;28;20203;-77
2022/05/25 06:50:21;;;;;;;7.37;1.67;;;;;;;;;;5044816;28;20204;-77
2022/05/25 06:52:48;;;;;;;4.23;2.00;;;;;;;;;;5058240;28;20230;-77
2022/05/25 06:55:15;;;;;;;6.43;2.07;;;;;;;;;;5050944;28;20202;-76
2022/05/25 06:57:42;;;;;;;6.53;2.20;;;;;;;;;;5043858;28;20245;-76
2022/05/25 07:00:10;;;;;;;3.73;1.93;;;;;;;;;;5042035;28;20287;-77
2022/05/25 07:02:37;;;;;;;3.43;1.90;;;;;;;;;;5044838;28;20262;-77
2022/05/25 07:05:05;;;;;;;3.83;1.60;;;;;;;;;;5049317;28;20568;-77
2022/05/25 07:07:34;;;;;;;2.50;1.40;;;;;;;;;;5044933;28;20298;-77
2022/05/25 07:10:01;;;;;;;4.13;1.50;;;;;;;;;;5048931;28;20670;-76
2022/05/25 07:12:31;;;;;;;7.43;2.17;;;;;;;;;;5046518;28;20731;-75
2022/05/25 07:14:58;;;;;;;6.77;1.33;;;;;;;;;;5044699;28;20677;-76
2022/05/25 07:17:26;;;;;;;5.10;1.60;;;;;;;;;;5046074;28;20297;-75
2022/05/25 07:19:53;;;;;;;2.83;1.60;;;;;;;;;;5043439;28;20294;-75
2022/05/25 07:22:20;;;;;;;11.77;1.83;;;;;;;;;;5042452;28;20223;-75
2022/05/25 07:24:49;;;;;;;6.77;1.80;;;;;;;;;;5048044;28;20228;-76
2022/05/25 07:27:16;;;;;;;4.93;1.70;;;;;;;;;;5045155;28;20206;-75
2022/05/25 07:29:43;;;;;;;5.07;1.93;;;;;;;;;;5043720;28;20234;-75
2022/05/25 07:32:13;;;;;;;5.80;1.87;;;;;;;;;;5046430;28;20601;-76
2022/05/25 07:34:41;;;;;;;5.57;2.10;;;;;;;;;;5046616;28;20210;-75
2022/05/25 07:37:10;;;;;;;5.93;2.17;;;;;;;;;;5040848;28;20697;-75
2022/05/25 07:39:40;;;;;;;5.70;2.00;;;;;;;;;;5047254;28;20226;-75
2022/05/25 07:42:10;;;;;;;3.23;1.60;;;;;;;;;;5046215;28;20565;-75
2022/05/25 07:44:39;;;;;;;5.57;1.87;;;;;;;;;;5043457;28;20219;-74
2022/05/25 07:47:06;;;;;;;5.03;1.90;;;;;;;;;;5046378;28;20757;-75
2022/05/25 07:49:33;;;;;;;6.57;2.00;;;;;;;;;;5045559;28;20203;-75
2022/05/25 07:52:02;;;;;;;5.83;2.13;;;;;;;;;;5044593;28;20219;-76
2022/05/25 07:54:30;;;;;;;6.67;2.10;;;;;;;;;;5048108;28;20202;-76
2022/05/25 07:56:59;;;;;;;6.73;2.00;;;;;;;;;;5043908;28;20206;-76
2022/05/25 07:59:28;;;;;;;5.13;1.80;;;;;;;;;;5052383;28;20288;-76
2022/05/25 08:07:27;;;;;;;3.83;1.37;;;;;;;;;;5044078;28;20659;-75
2022/05/25 08:09:57;;;;;;;7.47;1.60;;;;;;;;;;5044144;28;20261;-75
2022/05/25 08:12:25;;;;;;;4.83;1.57;;;;;;;;;;5043770;28;20225;-76
2022/05/25 08:14:54;;;;;;;4.53;1.40;;;;;;;;;;5047556;28;20748;-75
2022/05/25 08:17:21;;;;;;;3.30;1.17;;;;;;;;;;5042482;28;20217;-75
2022/05/25 08:19:48;;;;;;;5.10;1.10;;;;;;;;;;5045193;28;20203;-75
2022/05/25 08:22:15;;;;;;;5.23;1.10;;;;;;;;;;5045065;28;20249;-75
2022/05/25 08:24:43;;;;;;;2.80;0.87;;;;;;;;;;5044693;28;20223;-75
2022/05/25 08:27:10;;;;;;;3.23;0.90;;;;;;;;;;5045238;28;20210;-76
2022/05/25 08:29:37;;;;;;;2.90;0.70;;;;;;;;;;5046349;28;20232;-74
2022/05/25 08:32:06;;;;;;;4.57;0.90;;;;;;;;;;5040595;28;20235;-75
2022/05/25 08:34:34;;;;;;;3.10;0.73;;;;;;;;;;5050044;28;20669;-74
2022/05/25 08:37:02;;;;;;;4.07;1.00;;;;;;;;;;5044140;28;20210;-76
2022/05/25 08:39:30;;;;;;;3.17;0.80;;;;;;;;;;5044073;28;20273;-75
2022/05/25 08:41:59;;;;;;;2.10;0.70;;;;;;;;;;5043853;28;20763;-75
2022/05/25 08:44:27;;;;;;;1.73;0.73;;;;;;;;;;5044678;28;20242;-75
2022/05/25 08:46:55;;;;;;;1.23;0.73;;;;;;;;;;5044763;28;20207;-75
2022/05/25 08:49:25;;;;;;;1.00;0.40;;;;;;;;;;5046909;28;20218;-75
2022/05/25 08:51:54;;;;;;;2.67;0.70;;;;;;;;;;5042388;28;20219;-75
2022/05/25 08:54:23;;;;;;;0.67;0.30;;;;;;;;;;5044815;28;20309;-75
2022/05/25 08:56:51;;;;;;;1.50;0.50;;;;;;;;;;5045230;28;20199;-76
2022/05/25 08:59:22;;;;;;;1.37;0.30;;;;;;;;;;5046176;28;20298;-75
2022/05/25 09:01:52;;;;;;;0.83;0.40;;;;;;;;;;5044097;28;20230;-74
2022/05/25 09:04:23;;;;;;;1.17;0.63;;;;;;;;;;5042536;28;20210;-75
2022/05/25 09:06:53;;;;;;;2.00;0.40;;;;;;;;;;5047144;28;20203;-75
2022/05/25 09:09:25;;;;;;;0.97;0.30;;;;;;;;;;5045109;28;20299;-75
2022/05/25 09:11:55;;;;;;;1.00;0.40;;;;;;;;;;5043601;28;20758;-75
2022/05/25 09:14:25;;;;;;;3.20;0.53;;;;;;;;;;5042619;28;20206;-75
2022/05/25 09:16:55;;;;;;;1.40;0.30;;;;;;;;;;5042150;28;20299;-76
2022/05/25 09:19:24;;;;;;;2.30;0.50;;;;;;;;;;5044233;28;20294;-74
2022/05/25 09:21:54;;;;;;;5.03;0.57;;;;;;;;;;5046452;28;20225;-74
2022/05/25 09:24:22;;;;;;;0.57;0.33;;;;;;;;;;5039128;28;20204;-74
2022/05/25 09:26:49;;;;;;;1.33;0.50;;;;;;;;;;5044750;28;20204;-75
2022/05/25 09:29:17;;;;;;;2.33;0.43;;;;;;;;;;5042294;28;20674;-75
2022/05/25 09:31:46;;;;;;;9.00;0.53;;;;;;;;;;5042205;28;20740;-76
2022/05/25 09:34:16;;;;;;;0.80;0.30;;;;;;;;;;5044817;28;20676;-76
2022/05/25 09:36:45;;;;;;;1.40;0.40;;;;;;;;;;5044308;28;20576;-76
2022/05/25 09:39:18;;;;;;;1.80;0.40;;;;;;;;;;5040584;28;20238;-75
2022/05/25 09:41:45;;;;;;;0.70;0.40;;;;;;;;;;5042659;28;20227;-76
2022/05/25 09:44:14;;;;;;;2.03;0.60;;;;;;;;;;5042341;28;20234;-74
2022/05/25 09:46:42;;;;;;;1.70;0.50;;;;;;;;;;5046542;28;20512;-75
2022/05/25 09:49:12;;;;;;;4.07;0.43;;;;;;;;;;5040346;28;20203;-74
2022/05/25 09:51:43;;;;;;;1.53;0.53;;;;;;;;;;5042133;28;20234;-75
2022/05/25 09:54:13;;;;;;;3.77;0.60;;;;;;;;;;5045518;28;20206;-75
2022/05/25 09:56:44;;;;;;;1.00;0.40;;;;;;;;;;5044067;28;20202;-75
2022/05/25 09:59:14;;;;;;;0.97;0.40;;;;;;;;;;5039926;28;20372;-74
2022/05/25 10:01:43;;;;;;;0.90;0.43;;;;;;;;;;5044843;28;20258;-75
2022/05/25 10:04:12;;;;;;;1.03;0.40;;;;;;;;;;5039290;28;20202;-74
2022/05/25 10:06:49;;;;;;;2.20;0.40;;;;;;;;;;5039873;28;20241;-75
2022/05/25 10:09:19;;;;;;;0.80;0.40;;;;;;;;;;5042628;28;20676;-75
2022/05/25 10:11:49;;;;;;;1.47;0.60;;;;;;;;;;5041049;28;20262;-76
2022/05/25 10:14:18;;;;;;;0.97;0.40;;;;;;;;;;5044220;28;20210;-76
2022/05/25 10:16:46;;;;;;;0.80;0.30;;;;;;;;;;5041869;28;20201;-76
2022/05/25 10:19:14;;;;;;;0.20;0.20;;;;;;;;;;5041831;28;20684;-75
2022/05/25 10:21:47;;;;;;;0.30;0.30;;;;;;;;;;5041445;28;20322;-75
2022/05/25 10:24:16;;;;;;;1.20;0.40;;;;;;;;;;5041591;28;20290;-75
2022/05/25 10:26:46;;;;;;;1.40;0.30;;;;;;;;;;5044977;28;20219;-75
2022/05/25 10:36:45;;;;;;;4.93;0.43;;;;;;;;;;5044291;28;20325;-75
2022/05/25 10:37:53;;;;;;;1.60;0.30;;;;;;;;;;5045369;28;20210;-75
2022/05/25 10:40:23;;;;;;;3.13;0.43;;;;;;;;;;5040432;28;20299;-76
2022/05/25 10:42:57;;;;;;;0.80;0.37;;;;;;;;;;5046087;28;20312;-76
2022/05/25 10:45:32;;;;;;;0.70;0.50;;;;;;;;;;5043678;28;20218;-76
2022/05/25 10:48:07;;;;;;;1.57;0.50;;;;;;;;;;5043667;28;20210;-75
2022/05/25 10:50:39;;;;;;;4.57;0.50;;;;;;;;;;5044556;28;20280;-75
2022/05/25 10:53:11;;;;;;;0.90;0.30;;;;;;;;;;5041796;28;20245;-76
2022/05/25 10:55:41;;;;;;;1.07;0.40;;;;;;;;;;5044568;28;20296;-75
2022/05/25 10:58:16;;;;;;;0.60;0.33;;;;;;;;;;5044567;28;20678;-77
2022/05/25 11:00:54;;;;;;;2.23;0.60;;;;;;;;;;5043331;28;20198;-76
2022/05/25 11:03:55;;;;;;;2.27;0.30;;;;;;;;;;5044898;28;20348;-75
2022/05/25 11:06:28;;;;;;;1.27;0.30;;;;;;;;;;4959846;28;20232;-76
2022/05/25 11:09:05;;;;;;;1.23;0.47;;;;;;;;;;4957167;28;20324;-76
2022/05/25 11:11:34;;;;;;;1.63;0.50;;;;;;;;;;5008281;28;20619;-75
2022/05/25 11:14:17;;;;;;;1.77;0.50;;;;;;;;;;5044112;28;20204;-76
2022/05/25 11:16:53;;;;;;;1.43;0.70;;;;;;;;;;5042393;28;20191;-75
2022/05/25 11:19:30;;;;;;;3.53;0.50;;;;;;;;;;5044513;28;20207;-76
2022/05/25 11:22:03;;;;;;;1.13;0.40;;;;;;;;;;5047355;28;20314;-76
2022/05/25 11:24:36;;;;;;;2.07;0.30;;;;;;;;;;5044031;28;20618;-76
2022/05/25 11:27:21;;;;;;;0.83;0.40;;;;;;;;;;5047654;28;20227;-76
2022/05/25 11:29:58;;;;;;;2.83;0.50;;;;;;;;;;5046579;28;20207;-75
2022/05/25 11:32:31;;;;;;;1.00;0.40;;;;;;;;;;5044911;28;20333;-75
2022/05/25 11:35:08;;;;;;;2.67;0.47;;;;;;;;;;5044524;28;20199;-76
2022/05/25 11:37:44;;;;;;;1.03;0.50;;;;;;;;;;5043239;28;20221;-76
2022/05/25 11:40:19;;;;;;;1.50;0.60;;;;;;;;;;5042712;28;20218;-76
2022/05/25 11:42:58;;;;;;;2.63;0.47;;;;;;;;;;5046224;28;20319;-75
2022/05/25 11:45:31;;;;;;;2.57;0.70;;;;;;;;;;5040978;28;20701;-76
2022/05/25 11:48:08;;;;;;;4.97;0.60;;;;;;;;;;5045573;28;20294;-75
2022/05/25 11:50:39;;;;;;;1.33;0.30;;;;;;;;;;5045166;28;20235;-76
2022/05/25 11:53:15;;;;;;;3.57;0.43;;;;;;;;;;5046360;28;20233;-75
2022/05/25 11:55:46;;;;;;;0.60;0.30;;;;;;;;;;5042425;28;20210;-75
2022/05/25 11:58:18;;;;;;;0.80;0.40;;;;;;;;;;5043445;28;20248;-76
2022/05/25 12:00:56;;;;;;;2.50;0.73;;;;;;;;;;5047609;28;20257;-75
2022/05/25 12:03:38;;;;;;;0.53;0.20;;;;;;;;;;5046119;28;20291;-75
2022/05/25 12:06:15;;;;;;;0.47;0.30;;;;;;;;;;5042449;28;20310;-75
2022/05/25 12:08:55;;;;;;;0.60;0.30;;;;;;;;;;5045215;28;20212;-76
2022/05/25 12:11:27;;;;;;;7.20;0.37;;;;;;;;;;5044970;28;20430;-75
2022/05/25 12:13:58;;;;;;;1.60;0.30;;;;;;;;;;5042725;28;20207;-75
2022/05/25 12:16:30;;;;;;;2.50;0.20;;;;;;;;;;5045633;28;20195;-74
2022/05/25 12:19:01;;;;;;;1.93;0.37;;;;;;;;;;5041673;28;20298;-76
2022/05/25 12:21:33;;;;;;;0.50;0.30;;;;;;;;;;5047836;28;20280;-75
2022/05/25 12:24:03;;;;;;;0.40;0.23;;;;;;;;;;5049540;28;20284;-75
2022/05/25 12:26:32;;;;;;;3.83;0.20;;;;;;;;;;5046758;28;20223;-76
2022/05/25 12:29:05;;;;;;;0.30;0.20;;;;;;;;;;5045720;28;20211;-76
2022/05/25 12:31:33;;;;;;;0.40;0.20;;;;;;;;;;5042202;28;20233;-76
2022/05/25 12:34:01;;;;;;;0.70;0.30;;;;;;;;;;5046157;28;20854;-77
2022/05/25 12:36:32;;;;;;;0.40;0.20;;;;;;;;;;5043156;28;20225;-75
2022/05/25 12:38:59;;;;;;;1.40;0.10;;;;;;;;;;5042929;28;20199;-75
2022/05/25 12:41:28;;;;;;;1.07;0.30;;;;;;;;;;5044375;28;20235;-77
2022/05/25 12:43:57;;;;;;;3.27;0.40;;;;;;;;;;5043708;28;20633;-76
2022/05/25 12:49:32;;;;;;;0.70;0.30;;;;;;;;;;5044901;28;20235;-75
2022/05/25 12:52:01;;;;;;;0.73;0.37;;;;;;;;;;5042056;28;20259;-75
2022/05/25 12:54:30;;;;;;;4.43;0.30;;;;;;;;;;5044459;28;20289;-75
2022/05/25 12:56:59;;;;;;;2.23;0.33;;;;;;;;;;5043198;28;20195;-76
2022/05/25 12:59:28;;;;;;;1.53;0.33;;;;;;;;;;5044744;28;20235;-75
2022/05/25 13:02:08;;;;;;;2.00;0.30;;;;;;;;;;5046166;28;20235;-75
2022/05/25 13:04:44;;;;;;;2.50;0.30;;;;;;;;;;5043468;28;20261;-75
2022/05/25 13:07:24;;;;;;;0.17;0.10;;;;;;;;;;5043381;28;20226;-76
2022/05/25 13:09:51;;;;;;;1.50;0.17;;;;;;;;;;5046879;28;20242;-76
2022/05/25 13:12:44;;;;;;;1.33;0.20;;;;;;;;;;5041712;28;20228;-76
2022/05/25 13:15:27;;;;;;;3.50;0.30;;;;;;;;;;5045225;28;20245;-75
2022/05/25 13:17:54;;;;;;;0.73;0.20;;;;;;;;;;5037785;28;20203;-76
2022/05/25 13:20:48;;;;;;;0.87;0.20;;;;;;;;;;5042531;28;20231;-75
2022/05/25 13:23:30;;;;;;;2.37;0.30;;;;;;;;;;5041716;28;20208;-76
2022/05/25 13:26:01;;;;;;;2.73;0.20;;;;;;;;;;5040044;28;20251;-75
2022/05/25 13:28:31;;;;;;;1.37;0.30;;;;;;;;;;5042770;28;20713;-75
2022/05/25 13:31:09;;;;;;;5.03;0.30;;;;;;;;;;5043109;28;20296;-75
2022/05/25 13:33:43;;;;;;;4.33;0.50;;;;;;;;;;5043838;28;20290;-75
2022/05/25 13:36:16;;;;;;;0.50;0.30;;;;;;;;;;5036678;28;20199;-76
2022/05/25 13:38:46;;;;;;;4.03;0.50;;;;;;;;;;5040415;28;20194;-76
2022/05/25 13:41:17;;;;;;;0.50;0.20;;;;;;;;;;5039954;28;20234;-76
2022/05/25 13:43:49;;;;;;;3.53;0.23;;;;;;;;;;5038952;28;20302;-75
2022/05/25 13:46:30;;;;;;;1.03;0.30;;;;;;;;;;5038998;28;20222;-76
2022/05/25 13:48:57;;;;;;;2.80;0.30;;;;;;;;;;5036397;28;20318;-75
2022/05/25 13:51:25;;;;;;;0.23;0.13;;;;;;;;;;5041764;28;20239;-76
2022/05/25 13:53:53;;;;;;;0.70;0.30;;;;;;;;;;5041024;28;21117;-77
2022/05/25 13:56:24;;;;;;;2.47;0.40;;;;;;;;;;5044145;28;20203;-75
2022/05/25 13:58:53;;;;;;;2.10;0.40;;;;;;;;;;5037802;28;20417;-75
2022/05/25 14:01:22;;;;;;;1.40;0.20;;;;;;;;;;5043046;28;20265;-76
2022/05/25 14:03:52;;;;;;;8.33;0.30;;;;;;;;;;5044351;28;20210;-76
2022/05/25 14:06:19;;;;;;;1.60;0.40;;;;;;;;;;5042342;28;20233;-76
2022/05/25 14:11:39;;;;;;;0.30;0.23;;;;;;;;;;5047367;28;20222;-74
2022/05/25 14:14:18;;;;;;;2.03;0.33;;;;;;;;;;5046119;28;20211;-76
2022/05/25 14:16:49;;;;;;;0.83;0.30;;;;;;;;;;5047424;28;20286;-75
2022/05/25 14:19:21;;;;;;;1.03;0.30;;;;;;;;;;5041117;28;20821;-76
2022/05/25 14:21:50;;;;;;;1.93;0.30;;;;;;;;;;5043805;28;20746;-75
2022/05/25 14:24:19;;;;;;;1.03;0.30;;;;;;;;;;5047924;28;20574;-75
2022/05/25 14:26:51;;;;;;;0.63;0.30;;;;;;;;;;5045673;28;20305;-75
2022/05/25 14:29:20;;;;;;;1.33;0.20;;;;;;;;;;5042875;28;20241;-77
2022/05/25 14:31:49;;;;;;;1.50;0.33;;;;;;;;;;5044647;28;20701;-76
2022/05/25 14:34:18;;;;;;;2.77;0.20;;;;;;;;;;5045707;28;20234;-75
2022/05/25 14:36:46;;;;;;;3.30;0.30;;;;;;;;;;5043529;28;20203;-76
2022/05/25 14:39:15;;;;;;;0.57;0.30;;;;;;;;;;5046423;28;20298;-75
2022/05/25 14:41:48;;;;;;;1.47;0.10;;;;;;;;;;5047115;28;20788;-75
2022/05/25 14:44:41;;;;;;;3.63;0.40;;;;;;;;;;5043189;28;20211;-76
2022/05/25 14:47:12;;;;;;;2.80;0.40;;;;;;;;;;5045113;28;20219;-75
2022/05/25 14:49:39;;;;;;;1.10;0.40;;;;;;;;;;5045777;28;20203;-76
2022/05/25 14:52:15;;;;;;;0.57;0.30;;;;;;;;;;5045412;28;20313;-75
2022/05/25 14:54:42;;;;;;;1.40;0.30;;;;;;;;;;5044130;28;20214;-74
2022/05/25 14:57:10;;;;;;;3.03;0.47;;;;;;;;;;5045057;28;20199;-75
2022/05/25 14:59:42;;;;;;;0.40;0.30;;;;;;;;;;5042868;28;20666;-75
2022/05/25 15:02:22;;;;;;;2.33;0.30;;;;;;;;;;5039984;28;20255;-76
2022/05/25 15:04:49;;;;;;;1.03;0.30;;;;;;;;;;5046774;28;20529;-75
2022/05/25 15:07:23;;;;;;;1.37;0.40;;;;;;;;;;5044030;28;20589;-76
2022/05/25 15:09:50;;;;;;;3.03;0.30;;;;;;;;;;5044470;28;20287;-76
2022/05/25 15:12:19;;;;;;;1.00;0.40;;;;;;;;;;5043766;28;20723;-76
2022/05/25 15:20:45;;;;;;;2.00;0.50;;;;;;;;;;5043686;28;20291;-75
2022/05/25 15:23:16;;;;;;;2.70;0.40;;;;;;;;;;5040159;28;20237;-77
2022/05/25 15:25:44;;;;;;;0.37;0.23;;;;;;;;;;5039452;28;20202;-75
2022/05/25 15:28:14;;;;;;;4.00;0.40;;;;;;;;;;5040105;28;20567;-75
2022/05/25 15:30:43;;;;;;;0.87;0.30;;;;;;;;;;5044492;28;20636;-74
2022/05/25 15:33:10;;;;;;;2.50;0.43;;;;;;;;;;5041770;28;20314;-76
2022/05/25 15:35:38;;;;;;;1.93;0.70;;;;;;;;;;5045353;28;20277;-75
2022/05/25 15:38:06;;;;;;;1.13;0.23;;;;;;;;;;5047111;28;20195;-76